Time;durP1;ratioP1;P1;durP2;ratioP2;P2;SDS_P1;SDS_P2;PMS_P1;PMS_P2;Temp;Humidity;BMP_temperature;BMP_pressure;BME280_temperature;BME280_humidity;BME280_pressure;Samples;Min_cycle;Max_cycle;Signal;HPM_P1;HPM_P2
2022/04/14 00:00:55;;;;;;;17.83;8.00;;;10.10;97.30;;;;;;4993761;28;20839;-81
2022/04/14 00:03:21;;;;;;;13.10;7.93;;;10.10;97.30;;;;;;5009816;28;20640;-80
2022/04/14 00:05:50;;;;;;;13.30;6.87;;;10.10;97.30;;;;;;4993854;28;20177;-82
2022/04/14 00:08:16;;;;;;;11.30;5.93;;;10.10;97.30;;;;;;4994910;28;20213;-81
2022/04/14 00:10:41;;;;;;;10.87;6.10;;;10.00;97.30;;;;;;4996517;28;20555;-81
2022/04/14 00:13:07;;;;;;;14.40;6.83;;;10.00;97.30;;;;;;4996421;28;20236;-82
2022/04/14 00:15:32;;;;;;;9.87;6.30;;;10.00;97.30;;;;;;4995636;28;20193;-81
2022/04/14 00:17:58;;;;;;;11.00;7.17;;;10.00;97.30;;;;;;4996118;28;20600;-82
2022/04/14 00:20:24;;;;;;;10.07;6.27;;;10.00;97.30;;;;;;4995223;28;20606;-82
2022/04/14 00:22:49;;;;;;;15.03;8.90;;;10.00;97.30;;;;;;4995558;28;20185;-82
2022/04/14 00:25:15;;;;;;;13.63;7.97;;;9.90;97.30;;;;;;4994808;28;20197;-81
2022/04/14 00:27:41;;;;;;;14.90;7.87;;;9.90;97.30;;;;;;4996644;28;20445;-81
2022/04/14 00:30:07;;;;;;;13.80;8.27;;;9.90;97.30;;;;;;5011410;28;20488;-82
2022/04/14 00:32:33;;;;;;;16.50;9.13;;;9.90;97.30;;;;;;4995244;28;20182;-81
2022/04/14 00:34:58;;;;;;;17.00;8.70;;;9.80;97.30;;;;;;4995247;28;20445;-81
2022/04/14 00:37:24;;;;;;;16.70;9.03;;;9.80;97.30;;;;;;4995603;28;20188;-81
2022/04/14 00:39:51;;;;;;;15.60;8.37;;;9.70;97.30;;;;;;4995229;28;20652;-81
2022/04/14 00:42:16;;;;;;;16.30;8.53;;;9.70;97.30;;;;;;4995576;28;20188;-82
2022/04/14 00:44:42;;;;;;;20.03;8.00;;;9.70;97.30;;;;;;4995540;28;20449;-82
2022/04/14 00:47:10;;;;;;;15.50;8.70;;;9.70;97.30;;;;;;4995189;28;20178;-82
2022/04/14 00:49:36;;;;;;;15.67;8.63;;;9.60;97.30;;;;;;4995311;28;20460;-82
2022/04/14 00:52:03;;;;;;;15.00;8.73;;;9.60;97.30;;;;;;4995124;28;20965;-81
2022/04/14 00:54:30;;;;;;;19.93;8.63;;;9.60;97.30;;;;;;4995161;28;20494;-82
2022/04/14 00:56:57;;;;;;;20.73;9.33;;;9.50;97.30;;;;;;4994789;28;20417;-81
2022/04/14 00:59:23;;;;;;;15.47;9.23;;;9.50;97.30;;;;;;4995336;28;20994;-81
2022/04/14 01:01:49;;;;;;;17.43;7.80;;;9.50;97.30;;;;;;5011174;28;20555;-82
2022/04/14 01:04:15;;;;;;;15.43;8.47;;;9.40;97.30;;;;;;4995166;28;20947;-81
2022/04/14 01:06:41;;;;;;;16.37;8.13;;;9.40;97.30;;;;;;4995710;28;20177;-82
2022/04/14 01:09:21;;;;;;;15.17;6.90;;;9.40;97.30;;;;;;4994299;28;20417;-80
2022/04/14 01:11:51;;;;;;;11.40;7.13;;;9.40;97.30;;;;;;4993610;28;20256;-80
2022/04/14 01:14:28;;;;;;;13.40;7.00;;;9.30;97.30;;;;;;4987662;28;20843;-79
2022/04/14 01:16:55;;;;;;;13.27;7.47;;;9.20;97.30;;;;;;4972145;28;20442;-79
2022/04/14 01:19:22;;;;;;;14.53;7.93;;;9.20;97.30;;;;;;4972259;28;20458;-78
2022/04/14 01:22:21;;;;;;;12.10;7.30;;;9.10;97.30;;;;;;4972423;28;20415;-79
2022/04/14 01:24:47;;;;;;;12.67;6.93;;;9.10;97.30;;;;;;4972398;28;20477;-79
2022/04/14 01:27:13;;;;;;;19.23;7.57;;;9.00;97.30;;;;;;4972268;28;20504;-78
2022/04/14 01:29:38;;;;;;;13.47;7.40;;;9.00;97.30;;;;;;4972290;28;20691;-78
2022/04/14 01:32:05;;;;;;;17.20;7.37;;;9.00;97.30;;;;;;4972042;28;20410;-79
2022/04/14 01:34:31;;;;;;;12.57;7.60;;;9.00;97.30;;;;;;4972329;28;20272;-78
2022/04/14 01:37:00;;;;;;;16.67;9.50;;;9.00;97.30;;;;;;4973635;28;20410;-80
2022/04/14 01:39:27;;;;;;;15.57;9.47;;;8.90;97.30;;;;;;4973391;28;20182;-79
2022/04/14 01:41:53;;;;;;;18.53;8.70;;;8.80;97.30;;;;;;4988374;28;20426;-78
2022/04/14 01:44:18;;;;;;;16.10;8.63;;;8.80;97.30;;;;;;4988657;28;20516;-79
2022/04/14 01:46:44;;;;;;;14.83;8.03;;;8.70;97.30;;;;;;4977660;28;20202;-79
2022/04/14 01:49:10;;;;;;;15.87;8.83;;;8.70;97.30;;;;;;4975970;28;20225;-79
2022/04/14 01:51:36;;;;;;;12.77;8.00;;;8.70;97.30;;;;;;4975999;28;20265;-80
2022/04/14 01:54:03;;;;;;;20.80;10.73;;;8.60;97.30;;;;;;4975750;28;20492;-79
2022/04/14 01:56:28;;;;;;;19.23;9.63;;;8.60;97.30;;;;;;4977342;28;20468;-79
2022/04/14 01:58:54;;;;;;;19.80;9.20;;;8.50;97.30;;;;;;4975955;28;20789;-79
2022/04/14 02:01:20;;;;;;;17.27;8.63;;;8.50;97.30;;;;;;4975568;28;20511;-79
2022/04/14 02:03:46;;;;;;;14.30;8.47;;;8.50;97.30;;;;;;4975457;28;20214;-79
2022/04/14 02:06:12;;;;;;;13.50;7.97;;;8.40;97.30;;;;;;4975339;28;20413;-79
2022/04/14 02:08:37;;;;;;;12.87;8.33;;;8.40;97.30;;;;;;4975682;28;20500;-79
2022/04/14 02:11:03;;;;;;;14.33;7.70;;;8.40;97.30;;;;;;4976783;28;20615;-79
2022/04/14 02:13:30;;;;;;;19.23;9.07;;;8.50;97.30;;;;;;5007153;28;20194;-79
2022/04/14 02:15:55;;;;;;;16.27;8.30;;;8.50;97.30;;;;;;4975583;28;20425;-79
2022/04/14 02:18:21;;;;;;;20.00;9.70;;;8.50;97.30;;;;;;4994834;28;20429;-80
2022/04/14 02:20:46;;;;;;;15.10;8.40;;;8.50;97.30;;;;;;4990287;28;20183;-79
2022/04/14 02:23:12;;;;;;;13.43;8.97;;;8.40;97.30;;;;;;4975297;28;20276;-78
2022/04/14 02:25:37;;;;;;;17.23;8.97;;;8.40;97.30;;;;;;4975170;28;20238;-79
2022/04/14 02:28:03;;;;;;;14.10;8.07;;;8.40;97.30;;;;;;4976023;28;20671;-79
2022/04/14 02:30:29;;;;;;;13.03;7.40;;;8.30;97.30;;;;;;5005629;28;20288;-80
2022/04/14 02:32:54;;;;;;;16.50;8.60;;;8.30;97.30;;;;;;4994641;28;20566;-81
2022/04/14 02:35:20;;;;;;;13.80;7.67;;;8.20;97.30;;;;;;4994079;28;20206;-79
2022/04/14 02:37:45;;;;;;;14.40;7.63;;;8.10;97.30;;;;;;4994608;28;20526;-79
2022/04/14 02:40:11;;;;;;;18.90;8.10;;;8.10;97.30;;;;;;4995699;28;20232;-79
2022/04/14 02:42:37;;;;;;;17.57;8.80;;;8.10;97.30;;;;;;4995840;28;20174;-79
2022/04/14 02:45:03;;;;;;;13.77;7.80;;;8.10;97.30;;;;;;4994509;28;20198;-79
2022/04/14 02:47:29;;;;;;;14.77;8.70;;;8.10;97.30;;;;;;4980807;28;20190;-79
2022/04/14 02:49:55;;;;;;;19.00;9.87;;;8.10;97.30;;;;;;4974462;28;20464;-79
2022/04/14 02:52:20;;;;;;;17.67;7.60;;;8.10;97.30;;;;;;4974844;28;20802;-79
2022/04/14 02:54:46;;;;;;;16.60;8.30;;;8.00;97.30;;;;;;4990846;28;20198;-79
2022/04/14 02:57:12;;;;;;;14.77;7.60;;;8.00;97.30;;;;;;4975776;28;20182;-79
2022/04/14 02:59:37;;;;;;;20.87;8.57;;;8.00;97.30;;;;;;4974524;28;20179;-80
2022/04/14 03:02:04;;;;;;;12.53;7.27;;;7.90;97.30;;;;;;4975621;28;20240;-78
2022/04/14 03:04:30;;;;;;;16.30;8.50;;;7.90;97.30;;;;;;4974543;28;20194;-79
2022/04/14 03:06:56;;;;;;;13.13;7.30;;;7.80;97.30;;;;;;4974356;28;20432;-80
2022/04/14 03:09:22;;;;;;;15.80;8.33;;;7.80;97.30;;;;;;4974336;28;20448;-79
2022/04/14 03:11:48;;;;;;;13.50;7.63;;;7.70;97.30;;;;;;4974206;28;20418;-80
2022/04/14 03:14:14;;;;;;;17.10;8.67;;;7.60;97.30;;;;;;4975815;28;20195;-79
2022/04/14 03:16:39;;;;;;;15.67;8.63;;;7.60;97.30;;;;;;4974399;28;20213;-79
2022/04/14 03:19:05;;;;;;;18.80;9.60;;;7.50;97.30;;;;;;4974484;28;20645;-79
2022/04/14 03:21:30;;;;;;;20.27;10.07;;;7.50;97.30;;;;;;4987847;28;20186;-80
2022/04/14 03:23:56;;;;;;;21.90;9.17;;;7.50;97.30;;;;;;4993733;28;20301;-79
2022/04/14 03:26:21;;;;;;;19.33;9.90;;;7.50;97.30;;;;;;4993750;28;20796;-78
2022/04/14 03:28:47;;;;;;;27.67;13.43;;;7.50;97.30;;;;;;4993700;28;20651;-79
2022/04/14 03:31:12;;;;;;;33.30;13.87;;;7.60;97.30;;;;;;4993407;28;20293;-79
2022/04/14 03:33:38;;;;;;;24.73;11.20;;;7.60;97.30;;;;;;4993279;28;20200;-79
2022/04/14 03:36:04;;;;;;;28.43;14.90;;;7.70;97.30;;;;;;4993428;28;20318;-79
2022/04/14 03:38:30;;;;;;;44.93;16.10;;;7.80;97.30;;;;;;4988009;28;20174;-79
2022/04/14 03:40:56;;;;;;;35.23;16.20;;;7.80;97.30;;;;;;4973253;28;20958;-79
2022/04/14 03:43:22;;;;;;;37.60;16.20;;;8.00;97.30;;;;;;4972695;28;20513;-79
2022/04/14 03:45:47;;;;;;;41.20;17.43;;;8.10;97.30;;;;;;4971120;28;20186;-82
2022/04/14 03:48:13;;;;;;;38.33;17.73;;;8.20;97.30;;;;;;4971514;28;20186;-81
2022/04/14 03:50:39;;;;;;;36.63;16.47;;;8.30;97.30;;;;;;4969465;28;20222;-81
2022/04/14 03:53:05;;;;;;;37.67;17.83;;;8.40;97.30;;;;;;4974106;28;20183;-81
2022/04/14 03:55:31;;;;;;;37.57;16.67;;;8.50;97.30;;;;;;4988887;28;20221;-80
2022/04/14 03:57:56;;;;;;;42.43;17.97;;;8.50;97.30;;;;;;4975204;28;20861;-79
2022/04/14 04:00:22;;;;;;;47.67;19.97;;;8.60;97.30;;;;;;4973907;28;20214;-79
2022/04/14 04:02:48;;;;;;;36.10;16.83;;;8.60;97.30;;;;;;4973731;28;20232;-79
2022/04/14 04:05:13;;;;;;;35.87;17.47;;;8.60;97.30;;;;;;4973456;28;20236;-79
2022/04/14 04:07:39;;;;;;;35.30;15.77;;;8.60;97.30;;;;;;4973002;28;20186;-79
2022/04/14 04:10:06;;;;;;;37.80;17.83;;;8.60;97.30;;;;;;4974893;28;20562;-79
2022/04/14 04:12:31;;;;;;;33.60;15.70;;;8.70;97.30;;;;;;4974533;28;20179;-79
2022/04/14 04:14:57;;;;;;;29.73;16.17;;;8.70;97.30;;;;;;4973379;28;20453;-80
2022/04/14 04:17:22;;;;;;;33.73;15.80;;;8.70;97.30;;;;;;4975615;28;20181;-80
2022/04/14 04:19:48;;;;;;;30.30;14.23;;;8.70;97.30;;;;;;4976502;28;20201;-80
2022/04/14 04:22:14;;;;;;;29.43;14.67;;;8.70;97.30;;;;;;4977238;28;20182;-81
2022/04/14 04:24:39;;;;;;;28.93;14.27;;;8.80;97.30;;;;;;4975594;28;20194;-80
2022/04/14 04:27:05;;;;;;;40.40;16.50;;;8.90;97.30;;;;;;4977951;28;20174;-80
2022/04/14 04:29:31;;;;;;;33.50;15.80;;;8.90;97.30;;;;;;4978041;28;20699;-82
2022/04/14 04:31:57;;;;;;;36.40;15.23;;;8.90;97.30;;;;;;4977952;28;20649;-81
2022/04/14 04:34:22;;;;;;;31.00;14.90;;;9.00;97.30;;;;;;4975933;28;20813;-80
2022/04/14 04:36:48;;;;;;;34.20;14.63;;;9.00;97.30;;;;;;4976543;28;20248;-81
2022/04/14 04:39:14;;;;;;;35.10;14.13;;;9.10;97.30;;;;;;4976113;28;20189;-82
2022/04/14 04:41:39;;;;;;;26.20;14.13;;;9.10;97.30;;;;;;4973839;28;20179;-82
2022/04/14 04:44:05;;;;;;;29.57;14.87;;;9.10;97.30;;;;;;4974194;28;20525;-82
2022/04/14 04:46:31;;;;;;;29.20;13.87;;;9.20;97.30;;;;;;4974873;28;20985;-82
2022/04/14 04:48:57;;;;;;;27.80;14.70;;;9.20;97.30;;;;;;5007510;28;20529;-80
2022/04/14 04:51:22;;;;;;;32.60;14.30;;;9.20;97.30;;;;;;4975486;28;20597;-82
2022/04/14 04:53:48;;;;;;;26.67;12.97;;;9.30;97.30;;;;;;4973800;28;20194;-82
2022/04/14 04:56:14;;;;;;;32.87;15.70;;;9.40;97.30;;;;;;4973668;28;20167;-82
2022/04/14 04:58:39;;;;;;;38.07;13.53;;;9.40;97.30;;;;;;4973637;28;20183;-82
2022/04/14 05:01:05;;;;;;;28.33;13.87;;;9.50;97.30;;;;;;4973588;28;20222;-82
2022/04/14 05:03:31;;;;;;;30.30;13.70;;;9.60;97.30;;;;;;4974063;28;20182;-82
2022/04/14 05:05:56;;;;;;;27.90;13.57;;;9.70;97.30;;;;;;4973751;28;20406;-80
2022/04/14 05:08:22;;;;;;;25.53;13.27;;;9.80;97.30;;;;;;4974048;28;20325;-81
2022/04/14 05:10:48;;;;;;;26.83;13.07;;;9.90;97.30;;;;;;4974060;28;20665;-82
2022/04/14 05:13:15;;;;;;;30.50;14.50;;;10.00;97.30;;;;;;4973728;28;20181;-82
2022/04/14 05:15:41;;;;;;;31.07;13.33;;;10.10;97.30;;;;;;4973151;28;20206;-81
2022/04/14 05:18:07;;;;;;;30.40;13.60;;;10.10;97.30;;;;;;4973288;28;20410;-80
2022/04/14 05:20:34;;;;;;;31.67;14.57;;;10.30;97.30;;;;;;4976334;28;20424;-82
2022/04/14 05:23:03;;;;;;;24.23;13.10;;;10.40;97.30;;;;;;4992188;28;20196;-82
2022/04/14 05:25:29;;;;;;;32.30;14.30;;;10.40;97.30;;;;;;4991815;28;20468;-80
2022/04/14 05:27:55;;;;;;;23.97;11.60;;;10.50;97.30;;;;;;4992404;28;20525;-82
2022/04/14 05:30:21;;;;;;;24.17;12.30;;;10.60;97.30;;;;;;4991805;28;20544;-82
2022/04/14 05:32:46;;;;;;;22.73;12.80;;;10.60;97.30;;;;;;5009163;28;20417;-81
2022/04/14 05:35:12;;;;;;;28.20;13.30;;;10.60;97.30;;;;;;4991761;28;20491;-81
2022/04/14 05:37:38;;;;;;;22.13;11.90;;;10.70;97.30;;;;;;4974989;28;20187;-83
2022/04/14 05:40:04;;;;;;;24.03;12.67;;;10.70;97.30;;;;;;4987219;28;20204;-82
2022/04/14 05:42:30;;;;;;;25.40;12.97;;;10.70;97.30;;;;;;4991084;28;20600;-82
2022/04/14 05:44:56;;;;;;;24.53;12.80;;;10.80;97.30;;;;;;4990943;28;20534;-82
2022/04/14 05:47:23;;;;;;;21.97;12.07;;;10.80;97.30;;;;;;4993364;28;20189;-82
2022/04/14 05:49:50;;;;;;;18.83;10.30;;;10.90;97.30;;;;;;5007505;28;20408;-82
2022/04/14 05:52:16;;;;;;;24.87;12.77;;;10.90;97.30;;;;;;4991102;28;20496;-82
2022/04/14 05:54:41;;;;;;;23.30;10.73;;;11.00;97.30;;;;;;4991071;28;20532;-82
2022/04/14 05:57:07;;;;;;;21.67;11.30;;;11.00;97.30;;;;;;4991199;28;20185;-82
2022/04/14 05:59:32;;;;;;;24.93;11.57;;;11.10;97.30;;;;;;4992220;28;20189;-82
2022/04/14 06:01:58;;;;;;;25.57;11.00;;;11.10;97.30;;;;;;5007935;28;20321;-81
2022/04/14 06:04:24;;;;;;;21.10;12.50;;;11.20;97.30;;;;;;4991345;28;20241;-81
2022/04/14 06:06:49;;;;;;;37.63;11.60;;;11.20;97.30;;;;;;4992299;28;20178;-82
2022/04/14 06:09:15;;;;;;;25.60;11.90;;;11.20;97.30;;;;;;4993081;28;20264;-81
2022/04/14 06:11:40;;;;;;;22.50;11.40;;;11.30;97.30;;;;;;4992096;28;20276;-81
2022/04/14 06:14:06;;;;;;;20.90;11.20;;;11.40;97.30;;;;;;4990574;28;20197;-81
2022/04/14 06:16:31;;;;;;;22.20;11.70;;;11.40;97.30;;;;;;4991279;28;20174;-83
2022/04/14 06:18:57;;;;;;;20.27;11.73;;;11.40;97.30;;;;;;4991784;28;20641;-81
2022/04/14 06:21:23;;;;;;;23.87;11.23;;;11.50;97.30;;;;;;4991696;28;20182;-82
2022/04/14 06:23:49;;;;;;;22.33;11.50;;;11.50;97.30;;;;;;4991426;28;20209;-82
2022/04/14 06:26:15;;;;;;;21.70;11.83;;;11.60;97.30;;;;;;4992191;28;20182;-82
2022/04/14 06:28:42;;;;;;;25.53;11.43;;;11.60;97.30;;;;;;4991841;28;20828;-82
2022/04/14 06:31:08;;;;;;;19.97;9.20;;;11.60;97.30;;;;;;4993422;28;20919;-81
2022/04/14 06:33:34;;;;;;;20.97;10.83;;;11.70;97.30;;;;;;4995572;28;20417;-82
2022/04/14 06:35:59;;;;;;;20.73;10.60;;;11.70;97.30;;;;;;4994983;28;20784;-82
2022/04/14 06:38:29;;;;;;;19.70;10.90;;;11.80;97.30;;;;;;4975702;28;20179;-82
2022/04/14 06:40:55;;;;;;;20.13;11.00;;;11.80;97.30;;;;;;4976068;28;20209;-82
2022/04/14 06:43:21;;;;;;;18.10;9.90;;;12.00;97.30;;;;;;4992299;28;20430;-82
2022/04/14 06:45:47;;;;;;;20.47;11.10;;;12.00;97.30;;;;;;4975912;28;20645;-79
2022/04/14 06:48:13;;;;;;;16.70;10.50;;;12.20;97.30;;;;;;4976445;28;20469;-82
2022/04/14 06:50:40;;;;;;;17.87;10.80;;;12.30;97.30;;;;;;4976604;28;20457;-80
2022/04/14 06:53:05;;;;;;;18.50;9.90;;;12.50;97.30;;;;;;4976755;28;20409;-82
2022/04/14 06:55:32;;;;;;;19.63;9.60;;;12.60;97.30;;;;;;4975619;28;20507;-82
2022/04/14 06:57:58;;;;;;;21.40;11.93;;;12.80;97.30;;;;;;4975653;28;20649;-82
2022/04/14 07:00:24;;;;;;;19.47;11.03;;;12.90;97.30;;;;;;4975700;28;20509;-82
2022/04/14 07:02:52;;;;;;;18.20;9.50;;;13.10;97.30;;;;;;4974530;28;20462;-81
2022/04/14 07:05:19;;;;;;;17.40;9.40;;;13.20;97.30;;;;;;4975302;28;20843;-81
2022/04/14 07:07:45;;;;;;;13.20;8.27;;;13.30;97.30;;;;;;4975046;28;20422;-82
2022/04/14 07:10:12;;;;;;;17.90;8.77;;;13.40;97.30;;;;;;4974031;28;20520;-82
2022/04/14 07:12:39;;;;;;;14.23;8.60;;;13.50;97.30;;;;;;4975142;28;20720;-81
2022/04/14 07:15:05;;;;;;;17.87;9.37;;;13.60;97.30;;;;;;4975431;28;21155;-83
2022/04/14 07:17:31;;;;;;;19.00;8.00;;;13.60;97.30;;;;;;4974684;28;20521;-81
2022/04/14 07:19:58;;;;;;;17.87;9.50;;;13.70;97.30;;;;;;4975255;28;20465;-82
2022/04/14 07:22:24;;;;;;;16.00;9.10;;;13.70;97.30;;;;;;4995532;28;20245;-83
2022/04/14 07:24:50;;;;;;;15.00;8.50;;;13.70;97.30;;;;;;4993475;28;20959;-82
2022/04/14 07:27:21;;;;;;;14.23;8.03;;;13.80;97.30;;;;;;4993100;28;20177;-82
2022/04/14 07:29:47;;;;;;;15.17;9.03;;;13.90;97.30;;;;;;4993460;28;20457;-83
2022/04/14 07:32:14;;;;;;;14.90;9.03;;;13.90;97.30;;;;;;4994257;28;20409;-83
2022/04/14 07:34:39;;;;;;;15.40;8.93;;;14.00;97.30;;;;;;4994835;28;20445;-83
2022/04/14 07:37:05;;;;;;;17.40;8.00;;;14.10;97.30;;;;;;4983388;28;20422;-83
2022/04/14 07:39:31;;;;;;;18.70;9.40;;;14.20;97.30;;;;;;4973916;28;20183;-83
2022/04/14 07:41:56;;;;;;;15.50;8.60;;;14.40;97.30;;;;;;4972195;28;20185;-81
2022/04/14 07:44:22;;;;;;;13.87;7.50;;;14.40;97.30;;;;;;4973195;28;20198;-83
2022/04/14 07:46:47;;;;;;;18.20;8.40;;;14.60;97.30;;;;;;4973165;28;20657;-83
2022/04/14 07:49:13;;;;;;;15.40;8.40;;;14.60;97.30;;;;;;4973350;28;20171;-82
2022/04/14 07:51:40;;;;;;;22.20;8.80;;;14.70;97.30;;;;;;4972696;28;20226;-80
2022/04/14 07:54:06;;;;;;;12.73;6.97;;;14.80;97.30;;;;;;4973483;28;20198;-80
2022/04/14 07:56:33;;;;;;;17.23;8.77;;;14.80;97.30;;;;;;4974669;28;20472;-81
2022/04/14 07:58:59;;;;;;;11.93;7.90;;;14.80;97.30;;;;;;4973268;28;20436;-82
2022/04/14 08:01:25;;;;;;;15.40;7.87;;;14.90;97.30;;;;;;4972948;28;20944;-81
2022/04/14 08:03:51;;;;;;;14.60;8.13;;;14.90;97.30;;;;;;4973696;28;20537;-81
2022/04/14 08:06:17;;;;;;;16.10;7.87;;;15.00;97.30;;;;;;4973151;28;20484;-81
2022/04/14 08:08:42;;;;;;;14.00;7.37;;;15.10;97.30;;;;;;4972642;28;20920;-81
2022/04/14 08:11:10;;;;;;;13.97;7.60;;;15.20;97.30;;;;;;4972171;28;20222;-80
2022/04/14 08:13:38;;;;;;;20.73;7.67;;;15.30;97.30;;;;;;4972969;28;20667;-80
2022/04/14 08:16:06;;;;;;;13.70;8.20;;;15.40;97.30;;;;;;4973334;28;20445;-80
2022/04/14 08:18:37;;;;;;;14.67;7.10;;;15.50;97.30;;;;;;4972322;28;20428;-81
2022/04/14 08:21:03;;;;;;;15.60;7.97;;;15.70;97.30;;;;;;4981603;28;20427;-81
2022/04/14 08:23:29;;;;;;;14.17;8.50;;;15.90;97.30;;;;;;4991104;28;20436;-80
2022/04/14 08:25:55;;;;;;;14.13;6.80;;;16.00;97.30;;;;;;4992801;28;20450;-81
2022/04/14 08:28:21;;;;;;;19.57;7.97;;;16.20;97.30;;;;;;4992074;28;20931;-81
2022/04/14 08:30:46;;;;;;;11.30;6.33;;;16.30;97.30;;;;;;4993194;28;20707;-81
2022/04/14 08:33:13;;;;;;;11.43;6.93;;;16.30;97.30;;;;;;4991990;28;20188;-79
2022/04/14 08:35:38;;;;;;;12.40;6.40;;;16.40;97.30;;;;;;4994388;28;20217;-80
2022/04/14 08:38:08;;;;;;;10.13;5.83;;;16.50;97.30;;;;;;4975307;28;20422;-79
2022/04/14 08:40:39;;;;;;;16.23;6.70;;;16.70;97.30;;;;;;4972338;28;20588;-80
2022/04/14 08:43:07;;;;;;;12.80;5.83;;;16.80;97.20;;;;;;4971633;28;20808;-81
2022/04/14 08:45:35;;;;;;;13.50;5.90;;;16.90;96.80;;;;;;4971870;28;20809;-81
2022/04/14 08:48:04;;;;;;;10.53;5.20;;;17.10;97.00;;;;;;4972182;28;20461;-81
2022/04/14 08:50:31;;;;;;;7.73;4.60;;;17.20;96.30;;;;;;4973211;28;20465;-80
2022/04/14 08:52:57;;;;;;;9.63;5.13;;;17.30;95.60;;;;;;4972112;28;20709;-80
2022/04/14 08:55:24;;;;;;;10.50;4.50;;;17.50;95.90;;;;;;4973367;28;20453;-84
2022/04/14 08:57:50;;;;;;;6.80;4.27;;;17.70;95.30;;;;;;4973819;28;20430;-82
2022/04/14 09:00:16;;;;;;;11.50;3.87;;;17.80;94.80;;;;;;4973451;28;20564;-83
2022/04/14 09:02:46;;;;;;;10.70;5.03;;;17.80;94.90;;;;;;4972404;28;20457;-82
2022/04/14 09:05:13;;;;;;;5.27;3.70;;;17.90;94.80;;;;;;4973963;28;20442;-83
2022/04/14 09:07:39;;;;;;;9.83;4.70;;;18.00;93.90;;;;;;4972558;28;20425;-83
2022/04/14 09:10:06;;;;;;;11.23;5.27;;;18.00;94.20;;;;;;4973130;28;20466;-83
2022/04/14 09:12:35;;;;;;;10.50;5.40;;;18.00;94.50;;;;;;4974150;28;20171;-84
2022/04/14 09:15:00;;;;;;;10.33;5.40;;;17.80;94.60;;;;;;4971575;28;20441;-81
2022/04/14 09:17:27;;;;;;;10.70;5.40;;;17.80;95.20;;;;;;4972773;28;20456;-81
2022/04/14 09:19:53;;;;;;;9.20;5.33;;;17.70;95.60;;;;;;4971594;28;20229;-80
2022/04/14 09:22:20;;;;;;;7.40;5.07;;;17.70;96.10;;;;;;4992565;28;20468;-81
2022/04/14 09:24:53;;;;;;;18.67;6.10;;;17.70;96.20;;;;;;4991378;28;20206;-81
2022/04/14 09:27:33;;;;;;;13.90;5.30;;;17.70;96.50;;;;;;5008615;28;20425;-81
2022/04/14 09:30:05;;;;;;;9.00;6.20;;;17.60;95.70;;;;;;4992736;28;20555;-81
2022/04/14 09:32:30;;;;;;;8.77;5.03;;;17.50;95.60;;;;;;4991623;28;20468;-81
2022/04/14 09:34:57;;;;;;;8.47;5.27;;;17.50;95.70;;;;;;5008199;28;20440;-80
2022/04/14 09:37:24;;;;;;;8.13;4.47;;;17.70;96.10;;;;;;4980229;28;20290;-81
2022/04/14 09:40:05;;;;;;;9.47;5.63;;;17.80;95.50;;;;;;4972442;28;20414;-81
2022/04/14 09:42:35;;;;;;;7.37;4.83;;;17.80;95.20;;;;;;4972082;28;20421;-82
2022/04/14 09:45:25;;;;;;;7.80;4.53;;;17.90;95.60;;;;;;4973984;28;21002;-80
2022/04/14 09:48:01;;;;;;;9.93;5.00;;;18.00;94.40;;;;;;4972990;28;20418;-82
2022/04/14 09:50:29;;;;;;;11.03;4.80;;;18.00;94.70;;;;;;4974588;28;20457;-79
2022/04/14 09:53:09;;;;;;;7.27;4.57;;;18.00;94.80;;;;;;4975325;28;20414;-81
2022/04/14 09:55:40;;;;;;;5.83;4.30;;;18.00;95.00;;;;;;4973734;28;20444;-81
2022/04/14 09:58:10;;;;;;;10.13;5.17;;;18.20;95.20;;;;;;4972622;28;20422;-80
2022/04/14 10:00:43;;;;;;;8.87;4.93;;;18.40;95.10;;;;;;4972492;28;20845;-81
2022/04/14 10:03:12;;;;;;;10.80;4.70;;;18.60;94.40;;;;;;4987863;28;20496;-81
2022/04/14 10:05:38;;;;;;;10.00;5.50;;;18.80;93.60;;;;;;4991415;28;20453;-80
2022/04/14 10:08:07;;;;;;;8.23;4.10;;;18.70;93.30;;;;;;4979012;28;20457;-80
2022/04/14 10:10:34;;;;;;;5.13;3.53;;;18.50;93.50;;;;;;4977079;28;20555;-80
2022/04/14 10:13:05;;;;;;;9.57;4.43;;;18.30;93.90;;;;;;4976811;28;20908;-80
2022/04/14 10:15:33;;;;;;;6.33;4.43;;;18.20;94.40;;;;;;4976015;28;20449;-81
2022/04/14 10:18:06;;;;;;;5.20;3.30;;;18.20;95.10;;;;;;4989750;28;20428;-81
2022/04/14 10:20:33;;;;;;;11.37;4.20;;;18.20;94.50;;;;;;4985015;28;20429;-82
2022/04/14 10:23:00;;;;;;;6.63;4.10;;;18.20;94.90;;;;;;4995729;28;20508;-79
2022/04/14 10:25:26;;;;;;;5.77;3.57;;;18.10;94.60;;;;;;4986767;28;20448;-82
2022/04/14 10:27:56;;;;;;;6.87;3.70;;;18.00;95.10;;;;;;4992691;28;20579;-82
2022/04/14 10:30:23;;;;;;;4.37;3.57;;;18.00;95.30;;;;;;4974097;28;20524;-81
2022/04/14 10:32:49;;;;;;;5.93;3.80;;;18.10;95.70;;;;;;4974719;28;20424;-82
2022/04/14 10:35:14;;;;;;;4.70;3.40;;;18.30;95.30;;;;;;4993561;28;20436;-81
2022/04/14 10:37:48;;;;;;;8.40;3.60;;;18.40;94.40;;;;;;4980529;28;20645;-83
2022/04/14 10:40:14;;;;;;;8.77;3.20;;;18.70;94.50;;;;;;4974249;28;20193;-81
2022/04/14 10:42:51;;;;;;;7.10;3.60;;;18.80;93.30;;;;;;4974846;28;20429;-80
2022/04/14 10:45:23;;;;;;;5.60;3.40;;;18.90;92.70;;;;;;4973975;28;20449;-81
2022/04/14 10:47:54;;;;;;;5.37;3.30;;;19.10;93.00;;;;;;4974077;28;21063;-81
2022/04/14 10:50:32;;;;;;;6.10;3.37;;;19.10;92.10;;;;;;4973654;28;20494;-82
2022/04/14 10:53:20;;;;;;;6.50;3.47;;;19.00;91.80;;;;;;4975331;28;20507;-81
2022/04/14 10:55:48;;;;;;;9.33;3.80;;;18.90;93.40;;;;;;4978357;28;20430;-81
2022/04/14 10:58:26;;;;;;;4.90;3.67;;;18.80;92.90;;;;;;4975355;28;20418;-82
2022/04/14 11:00:52;;;;;;;4.80;4.00;;;18.70;93.10;;;;;;4989629;28;20441;-81
2022/04/14 11:03:18;;;;;;;5.83;4.23;;;18.70;94.60;;;;;;4973586;28;20987;-81
2022/04/14 11:05:45;;;;;;;4.90;3.70;;;18.60;93.90;;;;;;4973740;28;20182;-82
2022/04/14 11:08:29;;;;;;;5.20;3.10;;;18.60;94.20;;;;;;4974677;28;20476;-82
2022/04/14 11:11:12;;;;;;;5.70;3.70;;;18.50;93.90;;;;;;4974169;28;20473;-81
2022/04/14 11:14:01;;;;;;;6.57;3.43;;;18.30;94.40;;;;;;4973057;28;20426;-81
2022/04/14 11:16:44;;;;;;;5.77;3.00;;;18.20;94.70;;;;;;4989410;28;20554;-82
2022/04/14 11:19:30;;;;;;;4.80;3.20;;;18.20;94.70;;;;;;4972585;28;20436;-82
2022/04/14 11:22:02;;;;;;;4.83;3.27;;;18.20;94.50;;;;;;4979647;28;20435;-80
2022/04/14 11:24:36;;;;;;;9.37;3.40;;;18.30;94.30;;;;;;4995176;28;20457;-81
2022/04/14 11:27:18;;;;;;;7.50;3.33;;;18.40;94.90;;;;;;5002375;28;20801;-81
2022/04/14 11:29:53;;;;;;;6.90;2.90;;;18.50;94.20;;;;;;4987848;28;20511;-83
2022/04/14 11:32:39;;;;;;;3.43;2.77;;;18.50;93.70;;;;;;4976565;28;20445;-82
2022/04/14 11:35:13;;;;;;;4.87;3.33;;;18.70;93.90;;;;;;4984830;28;20446;-82
2022/04/14 11:37:44;;;;;;;5.30;3.10;;;18.70;93.00;;;;;;5002624;28;20498;-81
2022/04/14 11:40:16;;;;;;;4.80;2.90;;;18.90;93.50;;;;;;5006773;28;20915;-82
2022/04/14 11:42:43;;;;;;;3.33;2.10;;;19.00;92.00;;;;;;4973740;28;20475;-78
2022/04/14 11:45:09;;;;;;;5.40;2.53;;;19.00;91.80;;;;;;5005718;28;20426;-82
2022/04/14 11:47:36;;;;;;;4.93;2.70;;;19.00;91.80;;;;;;4973372;28;20976;-82
2022/04/14 11:50:02;;;;;;;3.10;2.30;;;19.20;91.00;;;;;;5004831;28;20711;-82
2022/04/14 11:52:28;;;;;;;3.47;2.47;;;19.40;91.70;;;;;;4974540;28;20426;-84
2022/04/14 11:54:55;;;;;;;4.97;2.37;;;19.40;91.10;;;;;;4984648;28;20286;-82
2022/04/14 11:57:29;;;;;;;3.97;2.93;;;19.50;90.70;;;;;;4986435;28;20248;-81
2022/04/14 12:00:06;;;;;;;6.47;3.17;;;19.30;91.40;;;;;;4979642;28;20966;-81
2022/04/14 12:02:31;;;;;;;6.97;2.40;;;19.20;91.40;;;;;;4994806;28;20505;-82
2022/04/14 12:04:58;;;;;;;4.20;2.43;;;19.00;90.80;;;;;;4973845;28;20441;-81
2022/04/14 12:07:31;;;;;;;4.40;2.90;;;18.80;91.20;;;;;;4974503;28;20201;-80
2022/04/14 12:09:58;;;;;;;7.63;3.23;;;18.90;92.50;;;;;;4982735;28;20954;-81
2022/04/14 12:12:24;;;;;;;4.63;2.80;;;19.00;92.40;;;;;;4974745;28;20422;-82
2022/04/14 12:14:52;;;;;;;4.63;3.30;;;19.20;91.80;;;;;;4975361;28;20811;-81
2022/04/14 12:17:22;;;;;;;4.93;3.30;;;19.40;92.20;;;;;;5009502;28;20579;-82
2022/04/14 12:19:51;;;;;;;4.30;2.30;;;19.20;91.80;;;;;;4971808;28;20461;-80
2022/04/14 12:22:18;;;;;;;4.63;3.07;;;19.00;92.30;;;;;;5002816;28;20426;-79
2022/04/14 12:24:49;;;;;;;5.27;3.20;;;18.80;92.10;;;;;;4984067;28;20465;-80
2022/04/14 12:27:23;;;;;;;4.97;3.67;;;18.50;92.90;;;;;;4976704;28;20528;-80
2022/04/14 12:30:06;;;;;;;5.93;4.07;;;18.60;93.90;;;;;;5008508;28;20441;-80
2022/04/14 12:32:32;;;;;;;5.93;3.77;;;18.70;93.40;;;;;;4974229;28;20437;-84
2022/04/14 12:34:57;;;;;;;4.83;4.30;;;18.70;94.20;;;;;;4972463;28;20445;-81
2022/04/14 12:37:37;;;;;;;8.40;5.13;;;18.70;93.60;;;;;;4972911;28;20201;-81
2022/04/14 12:40:13;;;;;;;7.23;5.40;;;18.70;94.00;;;;;;4989193;28;20551;-80
2022/04/14 12:42:43;;;;;;;9.80;7.37;;;18.60;94.30;;;;;;4994632;28;20405;-81